createdAt,value
2023-04-08T00:01:16.589Z,21.35
2023-04-08T00:03:45.531Z,25.27
2023-04-08T00:06:15.000Z,26.45
2023-04-08T00:08:46.736Z,24.55
2023-04-08T00:11:20.150Z,40.92
2023-04-08T00:14:04.399Z,30.42
2023-04-08T00:16:33.777Z,26.77
2023-04-08T00:19:06.973Z,17.95
2023-04-08T00:21:36.031Z,24.08
2023-04-08T00:24:07.667Z,17.95
2023-04-08T00:26:46.834Z,17.25
2023-04-08T00:29:16.068Z,19.52
2023-04-08T00:31:44.433Z,18.73
2023-04-08T00:34:18.138Z,17.45
2023-04-08T00:36:50.005Z,19.45
2023-04-08T00:39:20.745Z,18.48
2023-04-08T00:41:50.623Z,16.20
2023-04-08T00:44:30.570Z,15.70
2023-04-08T00:46:59.073Z,22.60
2023-04-08T00:49:28.329Z,19.27
2023-04-08T00:52:00.588Z,16.10
2023-04-08T00:54:29.258Z,24.52
2023-04-08T00:57:01.377Z,13.10
2023-04-08T00:59:31.682Z,17.40
2023-04-08T01:02:11.043Z,13.93
2023-04-08T01:04:51.042Z,12.30
2023-04-08T01:07:23.556Z,12.10
2023-04-08T01:09:56.419Z,15.75
2023-04-08T01:12:28.806Z,17.75
2023-04-08T01:15:01.796Z,16.45
2023-04-08T01:17:31.769Z,38.45
2023-04-08T01:20:02.068Z,227.57
2023-04-08T01:22:42.162Z,195.70
2023-04-08T01:25:18.520Z,21.42
2023-04-08T01:27:50.644Z,18.40
2023-04-08T01:30:30.694Z,15.75
2023-04-08T01:33:02.340Z,20.48
2023-04-08T01:35:32.627Z,12.40
2023-04-08T01:38:02.953Z,15.23
2023-04-08T01:40:32.380Z,16.85
2023-04-08T01:43:04.604Z,15.55
2023-04-08T01:45:33.473Z,11.68
2023-04-08T01:48:03.789Z,14.13
2023-04-08T01:50:42.960Z,9.13
2023-04-08T01:53:12.880Z,9.25
2023-04-08T01:55:43.352Z,9.32
2023-04-08T01:58:19.732Z,12.00
2023-04-08T02:00:49.204Z,8.35
2023-04-08T02:03:21.623Z,9.20
2023-04-08T02:05:53.319Z,11.15
2023-04-08T02:08:21.819Z,7.80
2023-04-08T02:10:50.423Z,8.15
2023-04-08T02:13:23.388Z,12.45
2023-04-08T02:15:58.420Z,11.95
2023-04-08T02:18:28.713Z,8.93
2023-04-08T02:21:01.973Z,8.38
2023-04-08T02:23:31.210Z,8.70
2023-04-08T02:25:59.901Z,8.88
2023-04-08T02:28:31.735Z,8.18
2023-04-08T02:31:02.344Z,11.80
2023-04-08T02:33:31.188Z,10.05
2023-04-08T02:36:00.122Z,12.57
2023-04-08T02:38:30.749Z,11.18
2023-04-08T02:40:59.884Z,10.52
2023-04-08T02:43:32.350Z,13.02
2023-04-08T02:46:03.919Z,14.65
2023-04-08T02:48:32.999Z,10.73
2023-04-08T02:51:02.350Z,14.43
2023-04-08T02:53:30.773Z,13.20
2023-04-08T02:55:59.034Z,14.48
2023-04-08T02:58:27.533Z,11.40
2023-04-08T03:00:57.745Z,9.90
2023-04-08T03:03:29.703Z,7.20
2023-04-08T03:05:59.408Z,9.52
2023-04-08T03:08:28.244Z,8.45
2023-04-08T03:10:56.788Z,6.75
2023-04-08T03:13:30.599Z,8.50
2023-04-08T03:16:00.346Z,10.15
2023-04-08T03:18:28.652Z,9.80
2023-04-08T03:20:57.620Z,12.73
2023-04-08T03:23:26.250Z,19.70
2023-04-08T03:25:54.989Z,16.38
2023-04-08T03:28:25.790Z,19.15
2023-04-08T03:31:03.276Z,16.60
2023-04-08T03:33:42.220Z,13.25
2023-04-08T03:36:10.742Z,13.40
2023-04-08T03:38:42.440Z,14.55
2023-04-08T03:41:10.918Z,19.75
2023-04-08T03:43:39.192Z,32.22
2023-04-08T03:46:07.787Z,17.15
2023-04-08T03:48:40.945Z,11.70
2023-04-08T03:51:09.342Z,9.98
2023-04-08T03:53:37.697Z,11.45
2023-04-08T03:56:06.706Z,12.07
2023-04-08T03:58:35.141Z,13.98
2023-04-08T04:01:04.252Z,8.70
2023-04-08T04:03:35.521Z,11.18
2023-04-08T04:06:05.698Z,9.48
2023-04-08T04:08:34.170Z,10.60
2023-04-08T04:11:02.557Z,15.63
2023-04-08T04:13:31.057Z,10.63
2023-04-08T04:15:59.547Z,10.02
2023-04-08T04:18:28.042Z,10.85
2023-04-08T04:20:56.545Z,14.60
2023-04-08T04:23:26.259Z,23.10
2023-04-08T04:25:54.554Z,15.18
2023-04-08T04:28:22.948Z,14.73
2023-04-08T04:30:51.418Z,18.98
2023-04-08T04:33:19.914Z,16.60
2023-04-08T04:35:51.154Z,21.92
2023-04-08T04:38:19.668Z,19.08
2023-04-08T04:40:49.499Z,16.27
2023-04-08T04:43:18.393Z,18.48
2023-04-08T04:45:47.356Z,16.40
2023-04-08T04:48:16.376Z,15.63
2023-04-08T04:50:56.322Z,18.90
2023-04-08T04:53:25.184Z,20.52
2023-04-08T04:55:58.092Z,23.92
2023-04-08T04:58:27.244Z,39.45
2023-04-08T05:00:57.729Z,64.03
2023-04-08T05:03:27.124Z,54.95
2023-04-08T05:05:56.335Z,74.63
2023-04-08T05:08:26.626Z,83.05
2023-04-08T05:10:59.875Z,120.05
2023-04-08T05:13:28.632Z,101.38
2023-04-08T05:15:57.441Z,33.30
2023-04-08T05:18:26.049Z,32.60
2023-04-08T05:23:48.615Z,36.13
2023-04-08T05:26:20.275Z,24.50
2023-04-08T05:28:52.888Z,27.20
2023-04-08T05:31:22.796Z,23.73
2023-04-08T05:33:57.013Z,24.95
2023-04-08T05:36:28.832Z,26.35
2023-04-08T05:38:59.529Z,26.38
2023-04-08T05:41:30.310Z,27.23
2023-04-08T05:43:58.709Z,30.45
2023-04-08T05:46:28.338Z,23.02
2023-04-08T05:48:56.791Z,23.92
2023-04-08T05:51:25.189Z,24.08
2023-04-08T05:53:53.785Z,19.88
2023-04-08T05:56:22.255Z,24.40
2023-04-08T05:58:52.554Z,22.33
2023-04-08T06:01:21.081Z,19.67
2023-04-08T06:03:49.546Z,24.55
2023-04-08T06:06:18.086Z,25.70
2023-04-08T06:08:47.370Z,26.77
2023-04-08T06:11:15.901Z,26.77
2023-04-08T06:13:47.455Z,26.58
2023-04-08T06:16:20.806Z,19.45
2023-04-08T06:18:53.258Z,23.33
2023-04-08T06:21:29.191Z,24.80
2023-04-08T06:23:58.539Z,27.38
2023-04-08T06:26:33.573Z,21.95
2023-04-08T06:29:05.392Z,19.10
2023-04-08T06:31:38.465Z,20.63
2023-04-08T06:34:13.339Z,19.63
2023-04-08T06:36:42.437Z,18.73
2023-04-08T06:42:07.610Z,20.60
2023-04-08T06:44:39.758Z,24.30
2023-04-08T06:47:17.742Z,23.35
2023-04-08T06:49:56.575Z,23.38
2023-04-08T06:52:34.229Z,26.60
2023-04-08T06:55:19.309Z,28.92
2023-04-08T06:57:48.509Z,28.00
2023-04-08T07:00:20.171Z,27.85
2023-04-08T07:02:52.524Z,30.60
2023-04-08T07:05:26.722Z,28.40
2023-04-08T07:07:56.699Z,28.33
2023-04-08T07:10:42.359Z,29.63
2023-04-08T07:13:10.935Z,27.17
2023-04-08T07:15:39.748Z,27.83
2023-04-08T07:18:14.456Z,32.80
2023-04-08T07:21:01.803Z,29.30
2023-04-08T07:23:33.721Z,36.97
2023-04-08T07:26:04.860Z,32.60
2023-04-08T07:28:33.861Z,28.40
2023-04-08T07:31:14.358Z,28.08
2023-04-08T07:33:44.587Z,26.02
2023-04-08T07:36:17.608Z,27.80
2023-04-08T07:38:56.239Z,28.60
2023-04-08T07:41:42.457Z,25.17
2023-04-08T07:44:11.775Z,30.38
2023-04-08T07:46:40.704Z,23.67
2023-04-08T07:49:17.622Z,25.92
2023-04-08T07:51:46.209Z,29.88
2023-04-08T07:54:17.620Z,28.02
2023-04-08T07:56:46.269Z,26.23
2023-04-08T07:59:15.216Z,29.05
2023-04-08T08:05:13.712Z,31.05
2023-04-08T08:07:54.954Z,35.75
2023-04-08T08:10:36.183Z,36.47
2023-04-08T08:13:09.414Z,33.60
2023-04-08T08:15:41.332Z,43.75
2023-04-08T08:18:24.326Z,36.70
2023-04-08T08:21:10.686Z,40.30
2023-04-08T08:23:44.304Z,36.05
2023-04-08T08:29:21.407Z,41.50
2023-04-08T08:32:03.902Z,37.55
2023-04-08T08:34:39.361Z,39.55
2023-04-08T08:37:43.567Z,38.58
2023-04-08T08:40:16.592Z,36.15
2023-04-08T08:42:58.024Z,38.22
2023-04-08T08:45:34.475Z,37.90
2023-04-08T08:48:03.527Z,35.40
2023-04-08T08:50:32.947Z,39.55
2023-04-08T08:53:03.448Z,35.13
2023-04-08T08:55:56.747Z,35.20
2023-04-08T08:58:22.538Z,35.42
2023-04-08T09:00:51.030Z,43.60
2023-04-08T09:03:22.297Z,32.42
2023-04-08T09:05:55.578Z,38.42
2023-04-08T09:08:33.955Z,46.63
2023-04-08T09:11:18.460Z,38.72
2023-04-08T09:14:02.453Z,33.67
2023-04-08T09:16:39.205Z,37.33
2023-04-08T09:19:13.601Z,46.10
2023-04-08T09:21:42.580Z,34.85
2023-04-08T09:24:32.415Z,29.92
2023-04-08T09:27:01.383Z,30.98
2023-04-08T09:29:39.902Z,34.65
2023-04-08T09:32:11.644Z,30.48
2023-04-08T09:34:47.760Z,30.42
2023-04-08T09:37:19.525Z,32.00
2023-04-08T09:39:49.928Z,31.40
2023-04-08T09:42:25.599Z,29.08
2023-04-08T09:45:00.186Z,28.88
2023-04-08T09:47:32.544Z,30.10
2023-04-08T09:50:06.766Z,28.77
2023-04-08T09:52:40.309Z,25.15
2023-04-08T09:55:15.101Z,27.42
2023-04-08T09:57:48.106Z,27.85
2023-04-08T10:00:17.789Z,29.65
2023-04-08T10:02:58.017Z,36.08
2023-04-08T10:05:31.145Z,40.92
2023-04-08T10:08:02.717Z,39.53
2023-04-08T10:10:37.104Z,40.63
2023-04-08T10:13:06.653Z,42.95
2023-04-08T10:15:39.729Z,43.53
2023-04-08T10:18:44.316Z,40.75
2023-04-08T10:21:37.064Z,44.53
2023-04-08T10:24:11.889Z,42.58
2023-04-08T10:26:44.131Z,43.90
2023-04-08T10:29:46.418Z,41.05
2023-04-08T10:32:41.872Z,39.13
2023-04-08T10:35:22.187Z,45.03
2023-04-08T10:37:53.967Z,41.75
2023-04-08T10:40:27.421Z,40.63
2023-04-08T10:42:58.285Z,40.28
2023-04-08T10:45:26.737Z,37.42
2023-04-08T10:47:55.178Z,34.72
2023-04-08T10:50:28.933Z,34.38
2023-04-08T10:52:57.666Z,39.00
2023-04-08T10:55:29.097Z,36.38
2023-04-08T10:58:13.468Z,36.10
2023-04-08T11:00:42.614Z,42.10
2023-04-08T11:03:15.108Z,35.42
2023-04-08T11:05:48.434Z,37.90
2023-04-08T11:08:20.911Z,39.88
2023-04-08T11:10:51.864Z,37.45
2023-04-08T11:13:27.744Z,40.70
2023-04-08T11:16:03.065Z,39.13
2023-04-08T11:18:39.173Z,41.90
2023-04-08T11:21:14.129Z,37.88
2023-04-08T11:23:44.645Z,41.95
2023-04-08T11:26:13.347Z,41.88
2023-04-08T11:28:47.701Z,51.50
2023-04-08T11:31:24.537Z,46.70
2023-04-08T11:33:56.911Z,47.80
2023-04-08T11:36:26.239Z,44.28
2023-04-08T11:38:56.337Z,41.45
2023-04-08T11:41:24.908Z,42.72
2023-04-08T11:43:57.099Z,39.63
2023-04-08T11:46:26.819Z,36.97
2023-04-08T11:49:08.087Z,34.00
2023-04-08T11:51:56.424Z,31.05
2023-04-08T11:54:29.139Z,37.53
2023-04-08T11:57:01.247Z,37.78
2023-04-08T11:59:31.115Z,34.35
2023-04-08T12:01:59.551Z,36.17
2023-04-08T12:04:28.752Z,37.10
2023-04-08T12:07:05.038Z,39.03
2023-04-08T12:09:33.703Z,36.67
2023-04-08T12:12:08.024Z,41.47
2023-04-08T12:14:37.724Z,57.97
2023-04-08T12:17:06.177Z,42.50
2023-04-08T12:19:36.449Z,39.05
2023-04-08T12:22:06.221Z,37.50
2023-04-08T12:24:49.847Z,40.28
2023-04-08T12:27:23.693Z,37.20
2023-04-08T12:29:57.888Z,38.10
2023-04-08T12:32:26.417Z,39.08
2023-04-08T12:34:55.160Z,39.97
2023-04-08T12:37:23.983Z,42.22
2023-04-08T12:39:52.776Z,42.80
2023-04-08T12:42:21.183Z,41.55
2023-04-08T12:44:49.494Z,47.35
2023-04-08T12:47:24.312Z,42.33
2023-04-08T12:49:54.445Z,42.67
2023-04-08T12:52:23.080Z,40.83
2023-04-08T12:54:51.462Z,41.83
2023-04-08T12:57:19.803Z,38.65
2023-04-08T12:59:48.952Z,42.90
2023-04-08T13:02:19.046Z,45.03
2023-04-08T13:04:47.382Z,39.55
2023-04-08T13:07:15.719Z,42.20
2023-04-08T13:09:47.460Z,44.67
2023-04-08T13:12:16.437Z,42.05
2023-04-08T13:14:45.014Z,39.53
2023-04-08T13:17:13.432Z,43.55
2023-04-08T13:19:43.362Z,41.53
2023-04-08T13:22:14.619Z,41.55
2023-04-08T13:24:49.047Z,44.75
2023-04-08T13:27:23.490Z,43.55
2023-04-08T13:29:51.987Z,43.17
2023-04-08T13:32:23.029Z,45.63
2023-04-08T13:35:02.182Z,42.33
2023-04-08T13:37:38.258Z,40.88
2023-04-08T13:40:09.073Z,41.88
2023-04-08T13:42:37.763Z,40.28
2023-04-08T13:45:07.223Z,35.28
2023-04-08T13:47:37.939Z,35.72
2023-04-08T13:50:09.490Z,36.80
2023-04-08T13:52:38.034Z,33.50
2023-04-08T13:55:08.063Z,32.83
2023-04-08T13:57:36.718Z,36.42
2023-04-08T14:00:05.612Z,34.90
2023-04-08T14:02:34.728Z,31.58
2023-04-08T14:05:08.886Z,33.28
2023-04-08T14:07:37.455Z,38.22
2023-04-08T14:10:07.871Z,34.53
2023-04-08T14:12:42.303Z,34.17
2023-04-08T14:15:11.720Z,35.80
2023-04-08T14:17:49.834Z,39.95
2023-04-08T14:20:22.806Z,34.20
2023-04-08T14:22:54.619Z,35.15
2023-04-08T14:25:23.481Z,35.28
2023-04-08T14:27:58.519Z,41.17
2023-04-08T14:30:27.951Z,35.13
2023-04-08T14:32:56.790Z,36.05
2023-04-08T14:35:32.764Z,38.05
2023-04-08T14:38:08.144Z,39.33
2023-04-08T14:40:37.924Z,37.30
2023-04-08T14:43:09.426Z,39.58
2023-04-08T14:45:40.591Z,42.63
2023-04-08T14:48:09.231Z,34.13
2023-04-08T14:50:40.813Z,38.80
2023-04-08T14:53:14.101Z,32.83
2023-04-08T14:55:42.992Z,32.92
2023-04-08T14:58:14.958Z,34.70
2023-04-08T15:00:47.909Z,33.55
2023-04-08T15:03:28.558Z,34.17
2023-04-08T15:06:06.099Z,31.90
2023-04-08T15:08:35.756Z,36.42
2023-04-08T15:11:04.218Z,32.05
2023-04-08T15:13:33.090Z,32.78
2023-04-08T15:16:03.515Z,33.70
2023-04-08T15:18:36.308Z,33.30
2023-04-08T15:21:06.667Z,31.10
2023-04-08T15:23:44.737Z,33.95
2023-04-08T15:26:19.171Z,31.30
2023-04-08T15:28:50.812Z,31.58
2023-04-08T15:31:19.791Z,33.10
2023-04-08T15:33:51.392Z,35.17
2023-04-08T15:36:21.791Z,30.77
2023-04-08T15:38:54.113Z,30.67
2023-04-08T15:41:32.527Z,29.92
2023-04-08T15:44:00.928Z,27.58
2023-04-08T15:46:32.472Z,32.45
2023-04-08T15:49:04.350Z,31.15
2023-04-08T15:51:35.050Z,30.10
2023-04-08T15:54:03.387Z,27.42
2023-04-08T15:56:31.692Z,28.73
2023-04-08T15:59:03.865Z,27.00
2023-04-08T16:01:33.450Z,26.67
2023-04-08T16:04:02.595Z,29.63
2023-04-08T16:06:31.390Z,27.45
2023-04-08T16:09:01.327Z,27.55
2023-04-08T16:11:30.240Z,32.75
2023-04-08T16:13:58.822Z,29.52
2023-04-08T16:16:27.241Z,30.20
2023-04-08T16:18:58.565Z,29.83
2023-04-08T16:21:26.966Z,32.83
2023-04-08T16:23:55.631Z,29.88
2023-04-08T16:26:30.146Z,26.50
2023-04-08T16:28:59.502Z,29.83
2023-04-08T16:33:59.837Z,28.75
2023-04-08T16:36:28.357Z,34.67
2023-04-08T16:38:57.476Z,29.85
2023-04-08T16:41:50.543Z,27.92
2023-04-08T16:44:22.259Z,31.85
2023-04-08T16:46:51.025Z,28.27
2023-04-08T16:49:19.618Z,29.17
2023-04-08T16:51:48.254Z,25.40
2023-04-08T16:54:17.009Z,27.35
2023-04-08T16:56:49.683Z,25.48
2023-04-08T16:59:18.324Z,25.33
2023-04-08T17:01:46.863Z,28.90
2023-04-08T17:04:15.535Z,29.35
2023-04-08T17:06:44.143Z,27.38
2023-04-08T17:09:12.834Z,27.38
2023-04-08T17:11:41.451Z,29.45
2023-04-08T17:14:11.199Z,30.42
2023-04-08T17:16:39.506Z,29.10
2023-04-08T17:19:07.826Z,27.40
2023-04-08T17:21:36.341Z,27.48
2023-04-08T17:24:04.842Z,27.20
2023-04-08T17:26:33.450Z,32.15
2023-04-08T17:29:01.746Z,27.95
2023-04-08T17:31:31.697Z,25.20
2023-04-08T17:34:00.158Z,29.27
2023-04-08T17:36:30.426Z,26.50
2023-04-08T17:39:05.030Z,25.67
2023-04-08T17:41:40.543Z,28.98
2023-04-08T17:44:09.457Z,39.15
2023-04-08T17:46:39.323Z,32.35
2023-04-08T17:49:07.657Z,31.38
2023-04-08T17:51:36.159Z,28.15
2023-04-08T17:54:07.716Z,30.60
2023-04-08T17:56:36.216Z,38.08
2023-04-08T17:59:04.645Z,31.38
2023-04-08T18:01:33.385Z,32.92
2023-04-08T18:04:06.936Z,33.65
2023-04-08T18:06:35.631Z,31.10
2023-04-08T18:09:04.736Z,30.65
2023-04-08T18:11:36.362Z,41.50
2023-04-08T18:14:07.829Z,69.95
2023-04-08T18:16:39.321Z,66.72
2023-04-08T18:19:11.504Z,80.45
2023-04-08T18:21:39.946Z,74.70
2023-04-08T18:24:11.926Z,64.65
2023-04-08T18:26:51.753Z,91.03
2023-04-08T18:29:32.567Z,69.20
2023-04-08T18:32:02.357Z,74.03
2023-04-08T18:34:35.997Z,84.20
2023-04-08T18:37:07.441Z,34.38
2023-04-08T18:39:36.057Z,39.20
2023-04-08T18:42:15.988Z,35.85
2023-04-08T18:44:47.733Z,38.20
2023-04-08T18:47:20.441Z,49.75
2023-04-08T18:49:58.766Z,40.72
2023-04-08T18:52:35.199Z,48.42
2023-04-08T18:55:06.388Z,42.47
2023-04-08T18:57:39.865Z,82.10
2023-04-08T19:00:15.146Z,72.85
2023-04-08T19:02:48.097Z,280.10
2023-04-08T19:05:21.375Z,124.53
2023-04-08T19:08:02.686Z,52.00
2023-04-08T19:10:37.048Z,60.33
2023-04-08T19:13:05.959Z,70.38
2023-04-08T19:15:37.790Z,59.88
2023-04-08T19:18:10.658Z,45.13
2023-04-08T19:21:08.641Z,75.93
2023-04-08T19:23:39.901Z,65.60
2023-04-08T19:26:22.785Z,56.38
2023-04-08T19:28:56.710Z,51.38
2023-04-08T19:31:25.586Z,56.67
2023-04-08T19:33:54.695Z,49.70
2023-04-08T19:39:47.832Z,98.05
2023-04-08T19:42:16.485Z,89.88
2023-04-08T19:44:45.176Z,86.68
2023-04-08T19:47:14.068Z,75.50
2023-04-08T19:52:34.728Z,77.18
2023-04-08T19:55:11.205Z,82.05
2023-04-08T19:57:48.398Z,80.93
2023-04-08T20:00:20.865Z,70.97
2023-04-08T20:02:53.182Z,60.10
2023-04-08T20:09:41.910Z,56.80
2023-04-08T20:18:22.026Z,54.53
2023-04-08T20:21:30.981Z,52.10
2023-04-08T20:24:20.271Z,55.70
2023-04-08T20:30:39.867Z,48.47
2023-04-08T20:36:29.887Z,71.60
2023-04-08T20:47:42.466Z,55.03
2023-04-08T20:51:09.123Z,46.25
2023-04-08T20:54:02.813Z,47.22
2023-04-08T21:10:18.102Z,58.22
2023-04-08T21:13:02.679Z,57.33
2023-04-08T21:15:38.586Z,59.95
2023-04-08T21:24:34.619Z,49.92
2023-04-08T21:31:40.079Z,47.65
2023-04-08T21:35:15.493Z,67.63
2023-04-08T21:38:34.479Z,64.32
2023-04-08T21:47:26.571Z,57.08
2023-04-08T21:50:09.565Z,62.33
2023-04-08T21:53:00.922Z,62.22
2023-04-08T22:21:21.919Z,55.17
2023-04-08T22:23:55.128Z,61.20
2023-04-08T22:27:07.663Z,58.15
2023-04-08T22:37:09.717Z,51.22
2023-04-08T22:40:28.552Z,52.47
2023-04-08T22:43:39.070Z,54.78
2023-04-08T22:46:30.982Z,51.03
2023-04-08T22:49:01.427Z,49.35
2023-04-08T22:51:51.988Z,56.38
2023-04-08T23:08:10.194Z,56.75
2023-04-08T23:15:25.233Z,52.78
2023-04-08T23:26:08.562Z,55.25
2023-04-08T23:35:10.891Z,60.65
2023-04-08T23:40:32.981Z,74.35
2023-04-08T23:46:05.673Z,71.38
2023-04-08T23:49:27.166Z,64.47
2023-04-08T23:58:28.920Z,71.45
